Terminal Aerodrome Forecast
Issued by NWS

Home | Current Version | Previous Version | Text Only | Print | Product List | Glossary On
Versions: 1 2 3 4 5 6 7 8 9 10 11 12 13 14 15
254
FTUS41 KPBZ 082343
TAFMGW
TAF
KMGW 082343Z 0900/0924 22004KT P6SM FEW009 BKN022
     FM090900 29005KT 2SM -SN OVC008=

USA.gov is the U.S. government's official web portal to all federal, state and local government web resources and services.